sensor_id;sensor_type;location;lat;lon;timestamp;P1;durP1;ratioP1;P2;durP2;ratioP2
70132;SDS011;57495;49.922;7.966;2023-04-01T00:01:03;5.20;;;1.15;;
70132;SDS011;57495;49.922;7.966;2023-04-01T00:03:06;5.15;;;1.00;;
70132;SDS011;57495;49.922;7.966;2023-04-01T00:05:07;6.88;;;0.95;;
70132;SDS011;57495;49.922;7.966;2023-04-01T00:07:10;3.67;;;1.00;;
70132;SDS011;57495;49.922;7.966;2023-04-01T00:09:13;6.55;;;0.85;;
70132;SDS011;57495;49.922;7.966;2023-04-01T00:11:14;7.25;;;0.90;;
70132;SDS011;57495;49.922;7.966;2023-04-01T00:13:17;9.48;;;0.70;;
70132;SDS011;57495;49.922;7.966;2023-04-01T00:15:18;7.38;;;1.40;;
70132;SDS011;57495;49.922;7.966;2023-04-01T00:17:20;4.77;;;0.93;;
70132;SDS011;57495;49.922;7.966;2023-04-01T00:19:22;6.30;;;0.73;;
70132;SDS011;57495;49.922;7.966;2023-04-01T00:21:24;6.22;;;1.08;;
70132;SDS011;57495;49.922;7.966;2023-04-01T00:23:25;4.22;;;0.82;;
70132;SDS011;57495;49.922;7.966;2023-04-01T00:25:28;6.13;;;1.33;;
70132;SDS011;57495;49.922;7.966;2023-04-01T00:27:30;7.13;;;0.90;;
70132;SDS011;57495;49.922;7.966;2023-04-01T00:29:31;5.30;;;0.63;;
70132;SDS011;57495;49.922;7.966;2023-04-01T00:31:34;4.88;;;0.73;;
70132;SDS011;57495;49.922;7.966;2023-04-01T00:33:36;6.40;;;1.23;;
70132;SDS011;57495;49.922;7.966;2023-04-01T00:35:39;4.85;;;0.55;;
70132;SDS011;57495;49.922;7.966;2023-04-01T00:37:41;6.63;;;0.67;;
70132;SDS011;57495;49.922;7.966;2023-04-01T00:39:43;3.45;;;0.68;;
70132;SDS011;57495;49.922;7.966;2023-04-01T00:41:46;7.28;;;0.93;;
70132;SDS011;57495;49.922;7.966;2023-04-01T00:43:48;2.28;;;0.35;;
70132;SDS011;57495;49.922;7.966;2023-04-01T00:45:51;4.80;;;1.30;;
70132;SDS011;57495;49.922;7.966;2023-04-01T00:47:52;5.23;;;1.03;;
70132;SDS011;57495;49.922;7.966;2023-04-01T00:49:54;6.80;;;0.68;;
70132;SDS011;57495;49.922;7.966;2023-04-01T00:51:56;4.97;;;0.77;;
70132;SDS011;57495;49.922;7.966;2023-04-01T00:54:02;6.70;;;0.70;;
70132;SDS011;57495;49.922;7.966;2023-04-01T00:56:04;4.70;;;0.90;;
70132;SDS011;57495;49.922;7.966;2023-04-01T00:58:13;5.17;;;1.03;;
70132;SDS011;57495;49.922;7.966;2023-04-01T01:00:18;3.63;;;0.65;;
70132;SDS011;57495;49.922;7.966;2023-04-01T01:02:19;1.65;;;0.32;;
70132;SDS011;57495;49.922;7.966;2023-04-01T01:04:23;4.40;;;0.80;;
70132;SDS011;57495;49.922;7.966;2023-04-01T01:06:29;4.97;;;0.95;;
70132;SDS011;57495;49.922;7.966;2023-04-01T01:08:58;3.70;;;0.70;;
70132;SDS011;57495;49.922;7.966;2023-04-01T01:11:08;4.78;;;0.77;;
70132;SDS011;57495;49.922;7.966;2023-04-01T01:13:14;5.38;;;0.68;;
70132;SDS011;57495;49.922;7.966;2023-04-01T01:15:23;6.45;;;0.80;;
70132;SDS011;57495;49.922;7.966;2023-04-01T01:17:31;6.13;;;0.93;;
70132;SDS011;57495;49.922;7.966;2023-04-01T01:19:52;5.17;;;0.73;;
70132;SDS011;57495;49.922;7.966;2023-04-01T01:22:10;3.45;;;0.50;;
70132;SDS011;57495;49.922;7.966;2023-04-01T01:24:28;5.68;;;0.75;;
70132;SDS011;57495;49.922;7.966;2023-04-01T01:26:49;4.85;;;0.60;;
70132;SDS011;57495;49.922;7.966;2023-04-01T01:29:00;2.30;;;0.50;;
70132;SDS011;57495;49.922;7.966;2023-04-01T01:31:11;4.73;;;0.80;;
70132;SDS011;57495;49.922;7.966;2023-04-01T01:33:24;4.40;;;0.50;;
70132;SDS011;57495;49.922;7.966;2023-04-01T01:35:36;4.43;;;0.52;;
70132;SDS011;57495;49.922;7.966;2023-04-01T01:37:39;4.60;;;0.63;;
70132;SDS011;57495;49.922;7.966;2023-04-01T01:39:43;3.60;;;0.40;;
70132;SDS011;57495;49.922;7.966;2023-04-01T01:41:49;5.97;;;0.60;;
70132;SDS011;57495;49.922;7.966;2023-04-01T01:43:50;4.20;;;0.50;;
70132;SDS011;57495;49.922;7.966;2023-04-01T01:45:57;4.28;;;0.80;;
70132;SDS011;57495;49.922;7.966;2023-04-01T01:48:02;7.13;;;0.75;;
70132;SDS011;57495;49.922;7.966;2023-04-01T01:50:07;4.05;;;0.60;;
70132;SDS011;57495;49.922;7.966;2023-04-01T01:52:12;4.63;;;0.60;;
70132;SDS011;57495;49.922;7.966;2023-04-01T01:54:15;3.95;;;0.73;;
70132;SDS011;57495;49.922;7.966;2023-04-01T01:56:17;4.40;;;0.50;;
70132;SDS011;57495;49.922;7.966;2023-04-01T01:58:22;3.63;;;0.50;;
70132;SDS011;57495;49.922;7.966;2023-04-01T02:00:26;4.88;;;0.60;;
70132;SDS011;57495;49.922;7.966;2023-04-01T02:02:28;5.47;;;0.63;;
70132;SDS011;57495;49.922;7.966;2023-04-01T02:04:32;5.13;;;0.70;;
70132;SDS011;57495;49.922;7.966;2023-04-01T02:06:34;3.80;;;0.68;;
70132;SDS011;57495;49.922;7.966;2023-04-01T02:08:42;3.38;;;0.40;;
70132;SDS011;57495;49.922;7.966;2023-04-01T02:10:48;6.35;;;0.60;;
70132;SDS011;57495;49.922;7.966;2023-04-01T02:13:00;4.23;;;0.50;;
70132;SDS011;57495;49.922;7.966;2023-04-01T02:15:07;4.32;;;0.30;;
70132;SDS011;57495;49.922;7.966;2023-04-01T02:17:12;5.32;;;1.02;;
70132;SDS011;57495;49.922;7.966;2023-04-01T02:19:17;3.58;;;0.70;;
70132;SDS011;57495;49.922;7.966;2023-04-01T02:21:22;2.88;;;0.63;;
70132;SDS011;57495;49.922;7.966;2023-04-01T02:23:28;3.47;;;0.30;;
70132;SDS011;57495;49.922;7.966;2023-04-01T02:25:33;4.03;;;0.40;;
70132;SDS011;57495;49.922;7.966;2023-04-01T02:27:36;4.55;;;0.55;;
70132;SDS011;57495;49.922;7.966;2023-04-01T02:29:39;5.05;;;0.47;;
70132;SDS011;57495;49.922;7.966;2023-04-01T02:31:40;5.75;;;0.70;;
70132;SDS011;57495;49.922;7.966;2023-04-01T02:33:43;4.10;;;0.57;;
70132;SDS011;57495;49.922;7.966;2023-04-01T02:35:46;3.30;;;0.30;;
70132;SDS011;57495;49.922;7.966;2023-04-01T02:37:51;4.65;;;0.57;;
70132;SDS011;57495;49.922;7.966;2023-04-01T02:39:54;3.22;;;0.40;;
70132;SDS011;57495;49.922;7.966;2023-04-01T02:42:02;4.32;;;0.52;;
70132;SDS011;57495;49.922;7.966;2023-04-01T02:44:04;3.33;;;0.50;;
70132;SDS011;57495;49.922;7.966;2023-04-01T02:46:07;3.78;;;0.52;;
70132;SDS011;57495;49.922;7.966;2023-04-01T02:48:08;5.80;;;0.55;;
70132;SDS011;57495;49.922;7.966;2023-04-01T02:50:10;3.90;;;0.40;;
70132;SDS011;57495;49.922;7.966;2023-04-01T02:52:12;3.92;;;0.52;;
70132;SDS011;57495;49.922;7.966;2023-04-01T02:54:13;4.03;;;0.30;;
70132;SDS011;57495;49.922;7.966;2023-04-01T02:56:15;3.70;;;0.55;;
70132;SDS011;57495;49.922;7.966;2023-04-01T02:58:18;3.78;;;0.50;;
70132;SDS011;57495;49.922;7.966;2023-04-01T03:00:20;4.90;;;0.50;;
70132;SDS011;57495;49.922;7.966;2023-04-01T03:02:21;3.63;;;0.80;;
70132;SDS011;57495;49.922;7.966;2023-04-01T03:04:23;6.93;;;0.60;;
70132;SDS011;57495;49.922;7.966;2023-04-01T03:06:24;4.28;;;0.60;;
70132;SDS011;57495;49.922;7.966;2023-04-01T03:08:26;4.55;;;0.63;;
70132;SDS011;57495;49.922;7.966;2023-04-01T03:10:27;7.00;;;0.63;;
70132;SDS011;57495;49.922;7.966;2023-04-01T03:12:29;4.80;;;0.82;;
70132;SDS011;57495;49.922;7.966;2023-04-01T03:14:32;5.17;;;0.63;;
70132;SDS011;57495;49.922;7.966;2023-04-01T03:16:33;4.45;;;0.63;;
70132;SDS011;57495;49.922;7.966;2023-04-01T03:18:34;6.57;;;0.77;;
70132;SDS011;57495;49.922;7.966;2023-04-01T03:20:36;5.93;;;0.70;;
70132;SDS011;57495;49.922;7.966;2023-04-01T03:22:37;4.60;;;0.93;;
70132;SDS011;57495;49.922;7.966;2023-04-01T03:24:39;4.07;;;0.47;;
70132;SDS011;57495;49.922;7.966;2023-04-01T03:26:40;4.47;;;0.80;;
70132;SDS011;57495;49.922;7.966;2023-04-01T03:28:42;4.45;;;0.88;;
70132;SDS011;57495;49.922;7.966;2023-04-01T03:30:45;6.65;;;0.90;;
70132;SDS011;57495;49.922;7.966;2023-04-01T03:32:46;6.05;;;1.55;;
70132;SDS011;57495;49.922;7.966;2023-04-01T03:34:47;5.70;;;0.70;;
70132;SDS011;57495;49.922;7.966;2023-04-01T03:36:49;4.43;;;0.95;;
70132;SDS011;57495;49.922;7.966;2023-04-01T03:38:51;4.55;;;1.10;;
70132;SDS011;57495;49.922;7.966;2023-04-01T03:40:52;6.97;;;0.88;;
70132;SDS011;57495;49.922;7.966;2023-04-01T03:42:53;3.72;;;0.85;;
70132;SDS011;57495;49.922;7.966;2023-04-01T03:44:56;4.13;;;0.60;;
70132;SDS011;57495;49.922;7.966;2023-04-01T03:46:58;5.18;;;1.00;;
70132;SDS011;57495;49.922;7.966;2023-04-01T03:49:00;6.68;;;1.30;;
70132;SDS011;57495;49.922;7.966;2023-04-01T03:51:05;3.78;;;0.70;;
70132;SDS011;57495;49.922;7.966;2023-04-01T03:53:08;6.50;;;0.80;;
70132;SDS011;57495;49.922;7.966;2023-04-01T03:55:10;3.87;;;1.27;;
70132;SDS011;57495;49.922;7.966;2023-04-01T03:57:12;3.70;;;0.60;;
70132;SDS011;57495;49.922;7.966;2023-04-01T03:59:13;7.88;;;0.73;;
70132;SDS011;57495;49.922;7.966;2023-04-01T04:01:16;3.88;;;0.40;;
70132;SDS011;57495;49.922;7.966;2023-04-01T04:03:20;4.57;;;0.63;;
70132;SDS011;57495;49.922;7.966;2023-04-01T04:05:21;5.27;;;0.77;;
70132;SDS011;57495;49.922;7.966;2023-04-01T04:07:23;4.93;;;0.60;;
70132;SDS011;57495;49.922;7.966;2023-04-01T04:09:24;4.30;;;0.70;;
70132;SDS011;57495;49.922;7.966;2023-04-01T04:11:26;3.85;;;0.50;;
70132;SDS011;57495;49.922;7.966;2023-04-01T04:13:27;3.90;;;0.40;;
70132;SDS011;57495;49.922;7.966;2023-04-01T04:15:29;2.93;;;0.47;;
70132;SDS011;57495;49.922;7.966;2023-04-01T04:17:30;3.67;;;1.00;;
70132;SDS011;57495;49.922;7.966;2023-04-01T04:19:33;8.68;;;1.13;;
70132;SDS011;57495;49.922;7.966;2023-04-01T04:21:34;4.95;;;1.05;;
70132;SDS011;57495;49.922;7.966;2023-04-01T04:23:36;5.03;;;0.93;;
70132;SDS011;57495;49.922;7.966;2023-04-01T04:25:38;2.70;;;0.57;;
70132;SDS011;57495;49.922;7.966;2023-04-01T04:27:39;5.15;;;1.25;;
70132;SDS011;57495;49.922;7.966;2023-04-01T04:29:41;5.38;;;1.10;;
70132;SDS011;57495;49.922;7.966;2023-04-01T04:31:42;5.45;;;1.25;;
70132;SDS011;57495;49.922;7.966;2023-04-01T04:33:44;4.18;;;0.68;;
70132;SDS011;57495;49.922;7.966;2023-04-01T04:35:47;6.60;;;0.90;;
70132;SDS011;57495;49.922;7.966;2023-04-01T04:37:48;4.00;;;0.90;;
70132;SDS011;57495;49.922;7.966;2023-04-01T04:39:50;6.00;;;0.80;;
70132;SDS011;57495;49.922;7.966;2023-04-01T04:41:51;3.30;;;0.82;;
70132;SDS011;57495;49.922;7.966;2023-04-01T04:43:53;4.40;;;0.82;;
70132;SDS011;57495;49.922;7.966;2023-04-01T04:45:55;3.23;;;0.57;;
70132;SDS011;57495;49.922;7.966;2023-04-01T04:47:57;4.70;;;0.50;;
70132;SDS011;57495;49.922;7.966;2023-04-01T04:49:58;5.43;;;0.85;;
70132;SDS011;57495;49.922;7.966;2023-04-01T04:52:01;4.88;;;0.50;;
70132;SDS011;57495;49.922;7.966;2023-04-01T04:54:03;4.97;;;0.80;;
70132;SDS011;57495;49.922;7.966;2023-04-01T04:56:05;5.63;;;0.30;;
70132;SDS011;57495;49.922;7.966;2023-04-01T04:58:06;4.82;;;0.40;;
70132;SDS011;57495;49.922;7.966;2023-04-01T05:00:08;6.40;;;0.60;;
70132;SDS011;57495;49.922;7.966;2023-04-01T05:02:11;4.68;;;0.47;;
70132;SDS011;57495;49.922;7.966;2023-04-01T05:04:12;5.25;;;0.60;;
70132;SDS011;57495;49.922;7.966;2023-04-01T05:06:14;3.90;;;0.30;;
70132;SDS011;57495;49.922;7.966;2023-04-01T05:08:19;5.05;;;0.47;;
70132;SDS011;57495;49.922;7.966;2023-04-01T05:10:20;2.33;;;0.20;;
70132;SDS011;57495;49.922;7.966;2023-04-01T05:12:22;5.57;;;0.38;;
70132;SDS011;57495;49.922;7.966;2023-04-01T05:14:23;3.50;;;0.20;;
70132;SDS011;57495;49.922;7.966;2023-04-01T05:16:24;5.53;;;0.40;;
70132;SDS011;57495;49.922;7.966;2023-04-01T05:18:26;2.45;;;0.20;;
70132;SDS011;57495;49.922;7.966;2023-04-01T05:20:27;3.75;;;0.22;;
70132;SDS011;57495;49.922;7.966;2023-04-01T05:22:29;6.10;;;0.30;;
70132;SDS011;57495;49.922;7.966;2023-04-01T05:24:32;2.47;;;0.40;;
70132;SDS011;57495;49.922;7.966;2023-04-01T05:26:33;3.63;;;0.37;;
70132;SDS011;57495;49.922;7.966;2023-04-01T05:28:36;4.15;;;0.50;;
70132;SDS011;57495;49.922;7.966;2023-04-01T05:30:39;3.55;;;0.77;;
70132;SDS011;57495;49.922;7.966;2023-04-01T05:32:41;2.92;;;0.30;;
70132;SDS011;57495;49.922;7.966;2023-04-01T05:34:43;3.20;;;0.43;;
70132;SDS011;57495;49.922;7.966;2023-04-01T05:36:45;2.63;;;0.37;;
70132;SDS011;57495;49.922;7.966;2023-04-01T05:38:46;3.70;;;0.50;;
70132;SDS011;57495;49.922;7.966;2023-04-01T05:40:49;2.13;;;0.40;;
70132;SDS011;57495;49.922;7.966;2023-04-01T05:42:50;5.63;;;0.70;;
70132;SDS011;57495;49.922;7.966;2023-04-01T05:44:52;4.68;;;0.57;;
70132;SDS011;57495;49.922;7.966;2023-04-01T05:46:53;2.40;;;0.37;;
70132;SDS011;57495;49.922;7.966;2023-04-01T05:48:55;3.00;;;0.30;;
70132;SDS011;57495;49.922;7.966;2023-04-01T05:50:56;2.95;;;0.20;;
70132;SDS011;57495;49.922;7.966;2023-04-01T05:52:57;2.25;;;0.30;;
70132;SDS011;57495;49.922;7.966;2023-04-01T05:54:59;3.20;;;0.28;;
70132;SDS011;57495;49.922;7.966;2023-04-01T05:57:02;2.93;;;0.43;;
70132;SDS011;57495;49.922;7.966;2023-04-01T05:59:03;2.33;;;0.32;;
70132;SDS011;57495;49.922;7.966;2023-04-01T06:01:06;2.47;;;0.20;;
70132;SDS011;57495;49.922;7.966;2023-04-01T06:03:09;1.65;;;0.25;;
70132;SDS011;57495;49.922;7.966;2023-04-01T06:05:14;4.85;;;0.30;;
70132;SDS011;57495;49.922;7.966;2023-04-01T06:07:19;4.57;;;0.30;;
70132;SDS011;57495;49.922;7.966;2023-04-01T06:09:23;2.45;;;0.30;;
70132;SDS011;57495;49.922;7.966;2023-04-01T06:11:29;2.90;;;0.30;;
70132;SDS011;57495;49.922;7.966;2023-04-01T06:13:44;3.17;;;0.30;;
70132;SDS011;57495;49.922;7.966;2023-04-01T06:16:00;4.05;;;0.17;;
70132;SDS011;57495;49.922;7.966;2023-04-01T06:18:20;5.67;;;0.50;;
70132;SDS011;57495;49.922;7.966;2023-04-01T06:20:38;3.25;;;0.20;;
70132;SDS011;57495;49.922;7.966;2023-04-01T06:25:18;2.70;;;0.20;;
70132;SDS011;57495;49.922;7.966;2023-04-01T06:27:34;2.17;;;0.28;;
70132;SDS011;57495;49.922;7.966;2023-04-01T06:29:52;2.80;;;0.20;;
70132;SDS011;57495;49.922;7.966;2023-04-01T06:32:14;1.83;;;0.20;;
70132;SDS011;57495;49.922;7.966;2023-04-01T06:34:33;3.15;;;0.30;;
70132;SDS011;57495;49.922;7.966;2023-04-01T06:36:56;1.88;;;0.28;;
70132;SDS011;57495;49.922;7.966;2023-04-01T06:39:09;3.35;;;0.38;;
70132;SDS011;57495;49.922;7.966;2023-04-01T06:41:24;2.43;;;0.10;;
70132;SDS011;57495;49.922;7.966;2023-04-01T06:43:42;2.92;;;0.20;;
70132;SDS011;57495;49.922;7.966;2023-04-01T06:45:58;3.95;;;0.20;;
70132;SDS011;57495;49.922;7.966;2023-04-01T06:48:12;2.38;;;0.22;;
70132;SDS011;57495;49.922;7.966;2023-04-01T06:50:24;2.17;;;0.20;;
70132;SDS011;57495;49.922;7.966;2023-04-01T06:52:31;1.27;;;0.17;;
70132;SDS011;57495;49.922;7.966;2023-04-01T06:54:44;2.83;;;0.10;;
70132;SDS011;57495;49.922;7.966;2023-04-01T06:56:50;1.50;;;0.20;;
70132;SDS011;57495;49.922;7.966;2023-04-01T06:58:58;1.58;;;0.20;;
70132;SDS011;57495;49.922;7.966;2023-04-01T07:01:06;2.75;;;0.35;;
70132;SDS011;57495;49.922;7.966;2023-04-01T07:03:13;1.43;;;0.13;;
70132;SDS011;57495;49.922;7.966;2023-04-01T07:05:20;1.48;;;0.20;;
70132;SDS011;57495;49.922;7.966;2023-04-01T07:07:24;4.10;;;0.40;;
70132;SDS011;57495;49.922;7.966;2023-04-01T07:09:34;1.65;;;0.20;;
70132;SDS011;57495;49.922;7.966;2023-04-01T07:11:39;3.80;;;0.40;;
70132;SDS011;57495;49.922;7.966;2023-04-01T07:13:42;3.00;;;0.10;;
70132;SDS011;57495;49.922;7.966;2023-04-01T07:15:51;3.55;;;0.30;;
70132;SDS011;57495;49.922;7.966;2023-04-01T07:18:02;1.38;;;0.10;;
70132;SDS011;57495;49.922;7.966;2023-04-01T07:20:10;1.33;;;0.10;;
70132;SDS011;57495;49.922;7.966;2023-04-01T07:22:19;2.75;;;0.30;;
70132;SDS011;57495;49.922;7.966;2023-04-01T07:24:29;1.53;;;0.20;;
70132;SDS011;57495;49.922;7.966;2023-04-01T07:26:35;1.30;;;0.20;;
70132;SDS011;57495;49.922;7.966;2023-04-01T07:28:36;2.50;;;0.30;;
70132;SDS011;57495;49.922;7.966;2023-04-01T07:30:46;1.27;;;0.10;;
70132;SDS011;57495;49.922;7.966;2023-04-01T07:32:53;1.60;;;0.20;;
70132;SDS011;57495;49.922;7.966;2023-04-01T07:35:07;2.60;;;0.10;;
70132;SDS011;57495;49.922;7.966;2023-04-01T07:37:20;3.58;;;0.20;;
70132;SDS011;57495;49.922;7.966;2023-04-01T07:39:32;1.55;;;0.10;;
70132;SDS011;57495;49.922;7.966;2023-04-01T07:41:45;2.38;;;0.10;;
70132;SDS011;57495;49.922;7.966;2023-04-01T07:43:54;1.35;;;0.10;;
70132;SDS011;57495;49.922;7.966;2023-04-01T07:46:07;2.60;;;0.20;;
70132;SDS011;57495;49.922;7.966;2023-04-01T07:48:20;2.15;;;0.17;;
70132;SDS011;57495;49.922;7.966;2023-04-01T07:50:29;1.27;;;0.10;;
70132;SDS011;57495;49.922;7.966;2023-04-01T07:52:35;2.28;;;0.10;;
70132;SDS011;57495;49.922;7.966;2023-04-01T07:54:44;1.13;;;0.20;;
70132;SDS011;57495;49.922;7.966;2023-04-01T07:56:55;1.33;;;0.20;;
70132;SDS011;57495;49.922;7.966;2023-04-01T07:59:03;1.65;;;0.10;;
70132;SDS011;57495;49.922;7.966;2023-04-01T08:01:19;1.73;;;0.10;;
70132;SDS011;57495;49.922;7.966;2023-04-01T08:03:34;0.80;;;0.10;;
70132;SDS011;57495;49.922;7.966;2023-04-01T08:05:49;3.45;;;0.10;;
70132;SDS011;57495;49.922;7.966;2023-04-01T08:07:59;1.20;;;0.20;;
70132;SDS011;57495;49.922;7.966;2023-04-01T08:10:11;2.70;;;0.20;;
70132;SDS011;57495;49.922;7.966;2023-04-01T08:12:21;2.72;;;0.30;;
70132;SDS011;57495;49.922;7.966;2023-04-01T08:14:37;1.55;;;0.10;;
70132;SDS011;57495;49.922;7.966;2023-04-01T08:16:46;1.23;;;0.10;;
70132;SDS011;57495;49.922;7.966;2023-04-01T08:18:59;2.07;;;0.20;;
70132;SDS011;57495;49.922;7.966;2023-04-01T08:21:12;2.15;;;0.10;;
70132;SDS011;57495;49.922;7.966;2023-04-01T08:23:19;2.35;;;0.20;;
70132;SDS011;57495;49.922;7.966;2023-04-01T08:25:24;2.35;;;0.20;;
70132;SDS011;57495;49.922;7.966;2023-04-01T08:27:28;2.17;;;0.30;;
70132;SDS011;57495;49.922;7.966;2023-04-01T08:29:37;1.40;;;0.20;;
70132;SDS011;57495;49.922;7.966;2023-04-01T08:31:45;1.92;;;0.20;;
70132;SDS011;57495;49.922;7.966;2023-04-01T08:33:53;1.52;;;0.10;;
70132;SDS011;57495;49.922;7.966;2023-04-01T08:35:56;2.15;;;0.20;;
70132;SDS011;57495;49.922;7.966;2023-04-01T08:38:05;1.48;;;0.30;;
70132;SDS011;57495;49.922;7.966;2023-04-01T08:40:25;1.20;;;0.10;;
70132;SDS011;57495;49.922;7.966;2023-04-01T08:42:41;1.65;;;0.20;;
70132;SDS011;57495;49.922;7.966;2023-04-01T08:45:03;1.58;;;0.20;;
70132;SDS011;57495;49.922;7.966;2023-04-01T08:47:44;1.23;;;0.10;;
70132;SDS011;57495;49.922;7.966;2023-04-01T08:50:16;1.45;;;0.20;;
70132;SDS011;57495;49.922;7.966;2023-04-01T08:52:30;1.00;;;0.10;;
70132;SDS011;57495;49.922;7.966;2023-04-01T08:54:44;1.00;;;0.13;;
70132;SDS011;57495;49.922;7.966;2023-04-01T08:56:55;2.55;;;0.77;;
70132;SDS011;57495;49.922;7.966;2023-04-01T08:59:09;0.65;;;0.10;;
70132;SDS011;57495;49.922;7.966;2023-04-01T09:01:26;1.60;;;0.28;;
70132;SDS011;57495;49.922;7.966;2023-04-01T09:03:44;2.13;;;0.10;;
70132;SDS011;57495;49.922;7.966;2023-04-01T09:06:03;2.25;;;0.30;;
70132;SDS011;57495;49.922;7.966;2023-04-01T09:08:27;0.80;;;0.10;;
70132;SDS011;57495;49.922;7.966;2023-04-01T09:10:42;1.17;;;0.20;;
70132;SDS011;57495;49.922;7.966;2023-04-01T09:12:59;0.98;;;0.10;;
70132;SDS011;57495;49.922;7.966;2023-04-01T09:15:29;1.70;;;0.20;;
70132;SDS011;57495;49.922;7.966;2023-04-01T09:20:24;1.45;;;0.43;;
70132;SDS011;57495;49.922;7.966;2023-04-01T09:22:50;0.70;;;0.10;;
70132;SDS011;57495;49.922;7.966;2023-04-01T09:25:15;0.90;;;0.10;;
70132;SDS011;57495;49.922;7.966;2023-04-01T09:27:33;1.37;;;0.10;;
70132;SDS011;57495;49.922;7.966;2023-04-01T09:29:58;1.15;;;0.10;;
70132;SDS011;57495;49.922;7.966;2023-04-01T09:32:14;1.02;;;0.10;;
70132;SDS011;57495;49.922;7.966;2023-04-01T09:36:55;0.98;;;0.15;;
70132;SDS011;57495;49.922;7.966;2023-04-01T09:39:25;1.57;;;0.10;;
70132;SDS011;57495;49.922;7.966;2023-04-01T09:41:36;0.85;;;0.10;;
70132;SDS011;57495;49.922;7.966;2023-04-01T09:43:56;1.17;;;0.20;;
70132;SDS011;57495;49.922;7.966;2023-04-01T09:46:12;0.60;;;0.10;;
70132;SDS011;57495;49.922;7.966;2023-04-01T09:48:24;0.75;;;0.10;;
70132;SDS011;57495;49.922;7.966;2023-04-01T09:50:40;0.50;;;0.10;;
70132;SDS011;57495;49.922;7.966;2023-04-01T09:52:51;0.90;;;0.10;;
70132;SDS011;57495;49.922;7.966;2023-04-01T09:55:06;1.38;;;0.15;;
70132;SDS011;57495;49.922;7.966;2023-04-01T10:03:16;0.97;;;0.17;;
70132;SDS011;57495;49.922;7.966;2023-04-01T10:05:49;0.95;;;0.10;;
70132;SDS011;57495;49.922;7.966;2023-04-01T10:08:32;1.10;;;0.10;;
70132;SDS011;57495;49.922;7.966;2023-04-01T10:13:32;0.70;;;0.10;;
70132;SDS011;57495;49.922;7.966;2023-04-01T10:16:13;0.80;;;0.10;;
70132;SDS011;57495;49.922;7.966;2023-04-01T10:18:52;0.70;;;0.10;;
70132;SDS011;57495;49.922;7.966;2023-04-01T10:24:13;0.85;;;0.10;;
70132;SDS011;57495;49.922;7.966;2023-04-01T10:26:38;1.98;;;0.10;;
70132;SDS011;57495;49.922;7.966;2023-04-01T10:29:02;1.63;;;0.30;;
70132;SDS011;57495;49.922;7.966;2023-04-01T10:31:43;1.25;;;0.10;;
70132;SDS011;57495;49.922;7.966;2023-04-01T10:36:52;0.60;;;0.10;;
70132;SDS011;57495;49.922;7.966;2023-04-01T10:39:06;0.73;;;0.10;;
70132;SDS011;57495;49.922;7.966;2023-04-01T10:41:38;0.80;;;0.10;;
70132;SDS011;57495;49.922;7.966;2023-04-01T10:47:02;1.73;;;0.20;;
70132;SDS011;57495;49.922;7.966;2023-04-01T10:49:34;1.45;;;0.10;;
70132;SDS011;57495;49.922;7.966;2023-04-01T10:54:32;0.60;;;0.10;;
70132;SDS011;57495;49.922;7.966;2023-04-01T10:56:55;0.80;;;0.10;;
70132;SDS011;57495;49.922;7.966;2023-04-01T10:59:10;0.70;;;0.20;;
70132;SDS011;57495;49.922;7.966;2023-04-01T11:01:37;0.98;;;0.10;;
70132;SDS011;57495;49.922;7.966;2023-04-01T11:07:09;0.80;;;0.10;;
70132;SDS011;57495;49.922;7.966;2023-04-01T11:09:57;3.42;;;0.10;;
70132;SDS011;57495;49.922;7.966;2023-04-01T11:12:37;0.73;;;0.20;;
70132;SDS011;57495;49.922;7.966;2023-04-01T11:15:11;1.70;;;0.10;;
70132;SDS011;57495;49.922;7.966;2023-04-01T11:17:42;0.82;;;0.10;;
70132;SDS011;57495;49.922;7.966;2023-04-01T11:22:50;1.13;;;0.20;;
70132;SDS011;57495;49.922;7.966;2023-04-01T11:25:20;1.10;;;0.10;;
70132;SDS011;57495;49.922;7.966;2023-04-01T11:27:44;0.93;;;0.10;;
70132;SDS011;57495;49.922;7.966;2023-04-01T11:32:39;0.60;;;0.10;;
70132;SDS011;57495;49.922;7.966;2023-04-01T11:34:51;0.60;;;0.10;;
70132;SDS011;57495;49.922;7.966;2023-04-01T11:37:05;1.08;;;0.10;;
70132;SDS011;57495;49.922;7.966;2023-04-01T11:39:19;0.75;;;0.10;;
70132;SDS011;57495;49.922;7.966;2023-04-01T11:41:28;1.13;;;0.13;;
70132;SDS011;57495;49.922;7.966;2023-04-01T11:43:37;0.97;;;0.20;;
70132;SDS011;57495;49.922;7.966;2023-04-01T11:45:45;0.88;;;0.10;;
70132;SDS011;57495;49.922;7.966;2023-04-01T11:47:53;0.93;;;0.10;;
70132;SDS011;57495;49.922;7.966;2023-04-01T11:50:14;1.13;;;0.10;;
70132;SDS011;57495;49.922;7.966;2023-04-01T11:52:25;1.10;;;0.20;;
70132;SDS011;57495;49.922;7.966;2023-04-01T11:54:44;0.60;;;0.10;;
70132;SDS011;57495;49.922;7.966;2023-04-01T11:57:16;0.73;;;0.10;;
70132;SDS011;57495;49.922;7.966;2023-04-01T11:59:43;0.85;;;0.10;;
70132;SDS011;57495;49.922;7.966;2023-04-01T12:01:56;0.73;;;0.10;;
70132;SDS011;57495;49.922;7.966;2023-04-01T12:04:21;0.85;;;0.10;;
70132;SDS011;57495;49.922;7.966;2023-04-01T12:06:38;0.70;;;0.10;;
70132;SDS011;57495;49.922;7.966;2023-04-01T12:08:49;2.50;;;0.20;;
70132;SDS011;57495;49.922;7.966;2023-04-01T12:10:58;0.75;;;0.10;;
70132;SDS011;57495;49.922;7.966;2023-04-01T12:13:11;1.05;;;0.10;;
70132;SDS011;57495;49.922;7.966;2023-04-01T12:15:22;1.27;;;0.20;;
70132;SDS011;57495;49.922;7.966;2023-04-01T12:17:34;0.77;;;0.10;;
70132;SDS011;57495;49.922;7.966;2023-04-01T12:19:45;1.00;;;0.10;;
70132;SDS011;57495;49.922;7.966;2023-04-01T12:21:58;1.00;;;0.15;;
70132;SDS011;57495;49.922;7.966;2023-04-01T12:27:11;0.90;;;0.10;;
70132;SDS011;57495;49.922;7.966;2023-04-01T12:29:40;0.77;;;0.10;;
70132;SDS011;57495;49.922;7.966;2023-04-01T12:31:52;1.10;;;0.20;;
70132;SDS011;57495;49.922;7.966;2023-04-01T12:34:09;1.08;;;0.20;;
70132;SDS011;57495;49.922;7.966;2023-04-01T12:36:32;1.00;;;0.10;;
70132;SDS011;57495;49.922;7.966;2023-04-01T12:38:44;0.82;;;0.10;;
70132;SDS011;57495;49.922;7.966;2023-04-01T12:41:07;0.90;;;0.10;;
70132;SDS011;57495;49.922;7.966;2023-04-01T12:43:16;3.15;;;0.10;;
70132;SDS011;57495;49.922;7.966;2023-04-01T12:45:41;1.30;;;0.17;;
70132;SDS011;57495;49.922;7.966;2023-04-01T12:48:05;0.98;;;0.10;;
70132;SDS011;57495;49.922;7.966;2023-04-01T12:50:29;1.00;;;0.20;;
70132;SDS011;57495;49.922;7.966;2023-04-01T12:52:41;0.80;;;0.10;;
70132;SDS011;57495;49.922;7.966;2023-04-01T12:54:58;0.70;;;0.10;;
70132;SDS011;57495;49.922;7.966;2023-04-01T12:57:14;0.80;;;0.10;;
70132;SDS011;57495;49.922;7.966;2023-04-01T12:59:37;0.90;;;0.10;;
70132;SDS011;57495;49.922;7.966;2023-04-01T13:02:01;1.13;;;0.20;;
70132;SDS011;57495;49.922;7.966;2023-04-01T13:06:54;1.02;;;0.10;;
70132;SDS011;57495;49.922;7.966;2023-04-01T13:09:10;1.10;;;0.20;;
70132;SDS011;57495;49.922;7.966;2023-04-01T13:11:23;1.33;;;0.22;;
70132;SDS011;57495;49.922;7.966;2023-04-01T13:13:45;2.45;;;0.10;;
70132;SDS011;57495;49.922;7.966;2023-04-01T13:15:55;1.20;;;0.20;;
70132;SDS011;57495;49.922;7.966;2023-04-01T13:18:10;0.98;;;0.10;;
70132;SDS011;57495;49.922;7.966;2023-04-01T13:20:24;1.50;;;0.22;;
70132;SDS011;57495;49.922;7.966;2023-04-01T13:22:44;1.10;;;0.20;;
70132;SDS011;57495;49.922;7.966;2023-04-01T13:24:54;0.90;;;0.10;;
70132;SDS011;57495;49.922;7.966;2023-04-01T13:27:05;1.33;;;0.20;;
70132;SDS011;57495;49.922;7.966;2023-04-01T13:29:14;1.55;;;0.15;;
70132;SDS011;57495;49.922;7.966;2023-04-01T13:33:42;0.98;;;0.10;;
70132;SDS011;57495;49.922;7.966;2023-04-01T13:35:50;2.83;;;0.40;;
70132;SDS011;57495;49.922;7.966;2023-04-01T13:38:02;0.77;;;0.10;;
70132;SDS011;57495;49.922;7.966;2023-04-01T13:40:18;2.15;;;0.20;;
70132;SDS011;57495;49.922;7.966;2023-04-01T13:42:27;0.77;;;0.20;;
70132;SDS011;57495;49.922;7.966;2023-04-01T13:44:33;0.80;;;0.10;;
70132;SDS011;57495;49.922;7.966;2023-04-01T13:46:43;1.10;;;0.20;;